sensor_id;sensor_type;location;lat;lon;timestamp;temperature;humidity
67748;HTU21D;54543;50.712;6.070;2023-03-23T00:01:20;11.82;81.67
67748;HTU21D;54543;50.712;6.070;2023-03-23T00:03:49;11.79;81.71
67748;HTU21D;54543;50.712;6.070;2023-03-23T00:06:17;11.79;81.69
67748;HTU21D;54543;50.712;6.070;2023-03-23T00:08:47;11.82;81.62
67748;HTU21D;54543;50.712;6.070;2023-03-23T00:11:13;11.82;81.52
67748;HTU21D;54543;50.712;6.070;2023-03-23T00:13:42;11.83;81.39
67748;HTU21D;54543;50.712;6.070;2023-03-23T00:16:10;11.81;82.17
67748;HTU21D;54543;50.712;6.070;2023-03-23T00:18:45;11.78;82.26
67748;HTU21D;54543;50.712;6.070;2023-03-23T00:21:11;11.78;82.26
67748;HTU21D;54543;50.712;6.070;2023-03-23T00:23:39;11.76;82.72
67748;HTU21D;54543;50.712;6.070;2023-03-23T00:26:05;11.76;82.37
67748;HTU21D;54543;50.712;6.070;2023-03-23T00:28:31;11.74;83.15
67748;HTU21D;54543;50.712;6.070;2023-03-23T00:31:02;11.72;83.07
67748;HTU21D;54543;50.712;6.070;2023-03-23T00:33:31;11.72;83.15
67748;HTU21D;54543;50.712;6.070;2023-03-23T00:35:59;11.67;83.45
67748;HTU21D;54543;50.712;6.070;2023-03-23T00:38:25;11.62;83.58
67748;HTU21D;54543;50.712;6.070;2023-03-23T00:40:51;11.56;84.39
67748;HTU21D;54543;50.712;6.070;2023-03-23T00:43:20;11.54;84.22
67748;HTU21D;54543;50.712;6.070;2023-03-23T00:45:46;11.46;86.13
67748;HTU21D;54543;50.712;6.070;2023-03-23T00:48:20;11.42;85.51
67748;HTU21D;54543;50.712;6.070;2023-03-23T00:50:49;11.41;85.85
67748;HTU21D;54543;50.712;6.070;2023-03-23T00:53:16;11.42;84.97
67748;HTU21D;54543;50.712;6.070;2023-03-23T00:55:44;11.43;85.10
67748;HTU21D;54543;50.712;6.070;2023-03-23T00:58:12;11.44;85.61
67748;HTU21D;54543;50.712;6.070;2023-03-23T01:00:39;11.45;85.36
67748;HTU21D;54543;50.712;6.070;2023-03-23T01:03:06;11.45;86.06
67748;HTU21D;54543;50.712;6.070;2023-03-23T01:05:36;11.46;84.77
67748;HTU21D;54543;50.712;6.070;2023-03-23T01:08:07;11.45;85.72
67748;HTU21D;54543;50.712;6.070;2023-03-23T01:10:33;11.45;85.31
67748;HTU21D;54543;50.712;6.070;2023-03-23T01:13:02;11.44;86.09
67748;HTU21D;54543;50.712;6.070;2023-03-23T01:15:30;11.43;86.27
67748;HTU21D;54543;50.712;6.070;2023-03-23T01:17:56;11.43;85.45
67748;HTU21D;54543;50.712;6.070;2023-03-23T01:20:25;11.43;86.23
67748;HTU21D;54543;50.712;6.070;2023-03-23T01:22:57;11.41;86.02
67748;HTU21D;54543;50.712;6.070;2023-03-23T01:25:35;11.41;86.77
67748;HTU21D;54543;50.712;6.070;2023-03-23T01:28:03;11.40;86.82
67748;HTU21D;54543;50.712;6.070;2023-03-23T01:30:34;11.41;86.03
67748;HTU21D;54543;50.712;6.070;2023-03-23T01:33:02;11.40;86.61
67748;HTU21D;54543;50.712;6.070;2023-03-23T01:35:33;11.40;86.36
67748;HTU21D;54543;50.712;6.070;2023-03-23T01:37:59;11.39;85.94
67748;HTU21D;54543;50.712;6.070;2023-03-23T01:40:26;11.40;86.15
67748;HTU21D;54543;50.712;6.070;2023-03-23T01:42:57;11.40;86.89
67748;HTU21D;54543;50.712;6.070;2023-03-23T01:45:24;11.40;86.64
67748;HTU21D;54543;50.712;6.070;2023-03-23T01:48:04;11.40;86.96
67748;HTU21D;54543;50.712;6.070;2023-03-23T01:50:37;11.40;86.29
67748;HTU21D;54543;50.712;6.070;2023-03-23T01:53:08;11.40;86.83
67748;HTU21D;54543;50.712;6.070;2023-03-23T01:55:39;11.41;85.94
67748;HTU21D;54543;50.712;6.070;2023-03-23T01:58:06;11.39;86.39
67748;HTU21D;54543;50.712;6.070;2023-03-23T02:00:34;11.38;85.90
67748;HTU21D;54543;50.712;6.070;2023-03-23T02:03:03;11.37;85.90
67748;HTU21D;54543;50.712;6.070;2023-03-23T02:05:33;11.36;85.81
67748;HTU21D;54543;50.712;6.070;2023-03-23T02:08:02;11.34;85.90
67748;HTU21D;54543;50.712;6.070;2023-03-23T02:10:33;11.34;85.45
67748;HTU21D;54543;50.712;6.070;2023-03-23T02:13:00;11.33;85.84
67748;HTU21D;54543;50.712;6.070;2023-03-23T02:16:06;11.31;85.97
67748;HTU21D;54543;50.712;6.070;2023-03-23T02:22:10;11.30;85.93
67748;HTU21D;54543;50.712;6.070;2023-03-23T02:27:46;11.36;85.77
67748;HTU21D;54543;50.712;6.070;2023-03-23T02:30:41;11.39;86.24
67748;HTU21D;54543;50.712;6.070;2023-03-23T02:33:33;11.42;85.67
67748;HTU21D;54543;50.712;6.070;2023-03-23T02:38:56;11.43;85.24
67748;HTU21D;54543;50.712;6.070;2023-03-23T02:41:28;11.46;85.13
67748;HTU21D;54543;50.712;6.070;2023-03-23T02:44:02;11.46;85.02
67748;HTU21D;54543;50.712;6.070;2023-03-23T02:46:31;11.51;84.56
67748;HTU21D;54543;50.712;6.070;2023-03-23T02:48:59;11.53;84.09
67748;HTU21D;54543;50.712;6.070;2023-03-23T02:51:26;11.52;84.47
67748;HTU21D;54543;50.712;6.070;2023-03-23T02:53:55;11.51;84.37
67748;HTU21D;54543;50.712;6.070;2023-03-23T02:56:23;11.52;84.56
67748;HTU21D;54543;50.712;6.070;2023-03-23T02:58:51;11.54;83.95
67748;HTU21D;54543;50.712;6.070;2023-03-23T03:04:03;11.54;83.84
67748;HTU21D;54543;50.712;6.070;2023-03-23T03:06:50;11.56;83.58
67748;HTU21D;54543;50.712;6.070;2023-03-23T03:12:30;11.54;84.00
67748;HTU21D;54543;50.712;6.070;2023-03-23T03:15:41;11.54;83.65
67748;HTU21D;54543;50.712;6.070;2023-03-23T03:18:14;11.56;83.78
67748;HTU21D;54543;50.712;6.070;2023-03-23T03:20:46;11.56;83.98
67748;HTU21D;54543;50.712;6.070;2023-03-23T03:23:14;11.56;83.68
67748;HTU21D;54543;50.712;6.070;2023-03-23T03:25:41;11.57;83.74
67748;HTU21D;54543;50.712;6.070;2023-03-23T03:28:16;11.57;83.65
67748;HTU21D;54543;50.712;6.070;2023-03-23T03:30:45;11.57;83.61
67748;HTU21D;54543;50.712;6.070;2023-03-23T03:33:12;11.60;83.50
67748;HTU21D;54543;50.712;6.070;2023-03-23T03:35:40;11.59;83.23
67748;HTU21D;54543;50.712;6.070;2023-03-23T03:38:10;11.58;83.28
67748;HTU21D;54543;50.712;6.070;2023-03-23T03:40:36;11.57;83.32
67748;HTU21D;54543;50.712;6.070;2023-03-23T03:43:02;11.57;83.00
67748;HTU21D;54543;50.712;6.070;2023-03-23T03:45:28;11.55;83.32
67748;HTU21D;54543;50.712;6.070;2023-03-23T03:47:55;11.53;83.10
67748;HTU21D;54543;50.712;6.070;2023-03-23T03:50:20;11.51;83.21
67748;HTU21D;54543;50.712;6.070;2023-03-23T03:52:46;11.51;83.17
67748;HTU21D;54543;50.712;6.070;2023-03-23T03:55:12;11.51;83.14
67748;HTU21D;54543;50.712;6.070;2023-03-23T03:57:39;11.48;83.20
67748;HTU21D;54543;50.712;6.070;2023-03-23T04:00:07;11.48;83.26
67748;HTU21D;54543;50.712;6.070;2023-03-23T04:02:44;11.47;83.05
67748;HTU21D;54543;50.712;6.070;2023-03-23T04:05:13;11.45;83.22
67748;HTU21D;54543;50.712;6.070;2023-03-23T04:07:39;11.48;82.95
67748;HTU21D;54543;50.712;6.070;2023-03-23T04:10:10;11.47;82.95
67748;HTU21D;54543;50.712;6.070;2023-03-23T04:12:38;11.47;82.75
67748;HTU21D;54543;50.712;6.070;2023-03-23T04:15:04;11.46;82.78
67748;HTU21D;54543;50.712;6.070;2023-03-23T04:17:31;11.45;82.84
67748;HTU21D;54543;50.712;6.070;2023-03-23T04:19:56;11.41;82.78
67748;HTU21D;54543;50.712;6.070;2023-03-23T04:22:23;11.42;82.60
67748;HTU21D;54543;50.712;6.070;2023-03-23T04:24:56;11.39;82.73
67748;HTU21D;54543;50.712;6.070;2023-03-23T04:27:25;11.38;82.71
67748;HTU21D;54543;50.712;6.070;2023-03-23T04:29:51;11.39;82.58
67748;HTU21D;54543;50.712;6.070;2023-03-23T04:32:17;11.40;82.48
67748;HTU21D;54543;50.712;6.070;2023-03-23T04:34:46;11.41;82.26
67748;HTU21D;54543;50.712;6.070;2023-03-23T04:37:11;11.37;82.50
67748;HTU21D;54543;50.712;6.070;2023-03-23T04:39:40;11.38;82.29
67748;HTU21D;54543;50.712;6.070;2023-03-23T04:42:06;11.38;82.21
67748;HTU21D;54543;50.712;6.070;2023-03-23T04:44:32;11.39;81.95
67748;HTU21D;54543;50.712;6.070;2023-03-23T04:47:00;11.40;81.62
67748;HTU21D;54543;50.712;6.070;2023-03-23T04:49:26;11.40;81.33
67748;HTU21D;54543;50.712;6.070;2023-03-23T04:51:54;11.40;81.18
67748;HTU21D;54543;50.712;6.070;2023-03-23T04:54:19;11.40;81.33
67748;HTU21D;54543;50.712;6.070;2023-03-23T04:56:45;11.36;81.20
67748;HTU21D;54543;50.712;6.070;2023-03-23T04:59:10;11.33;81.10
67748;HTU21D;54543;50.712;6.070;2023-03-23T05:01:39;11.33;80.88
67748;HTU21D;54543;50.712;6.070;2023-03-23T05:04:05;11.31;80.88
67748;HTU21D;54543;50.712;6.070;2023-03-23T05:06:31;11.28;80.87
67748;HTU21D;54543;50.712;6.070;2023-03-23T05:08:56;11.29;80.78
67748;HTU21D;54543;50.712;6.070;2023-03-23T05:11:22;11.27;80.17
67748;HTU21D;54543;50.712;6.070;2023-03-23T05:13:47;11.28;80.41
67748;HTU21D;54543;50.712;6.070;2023-03-23T05:16:14;11.28;80.34
67748;HTU21D;54543;50.712;6.070;2023-03-23T05:18:39;11.25;80.30
67748;HTU21D;54543;50.712;6.070;2023-03-23T05:21:05;11.24;80.40
67748;HTU21D;54543;50.712;6.070;2023-03-23T05:23:30;11.24;80.34
67748;HTU21D;54543;50.712;6.070;2023-03-23T05:25:59;11.24;80.19
67748;HTU21D;54543;50.712;6.070;2023-03-23T05:28:28;11.18;80.40
67748;HTU21D;54543;50.712;6.070;2023-03-23T05:30:56;11.18;80.45
67748;HTU21D;54543;50.712;6.070;2023-03-23T05:33:21;11.17;80.48
67748;HTU21D;54543;50.712;6.070;2023-03-23T05:35:48;11.14;80.67
67748;HTU21D;54543;50.712;6.070;2023-03-23T05:38:15;11.11;80.77
67748;HTU21D;54543;50.712;6.070;2023-03-23T05:40:41;11.09;80.91
67748;HTU21D;54543;50.712;6.070;2023-03-23T05:43:08;11.07;81.03
67748;HTU21D;54543;50.712;6.070;2023-03-23T05:45:34;11.02;81.45
67748;HTU21D;54543;50.712;6.070;2023-03-23T05:48:00;11.01;81.94
67748;HTU21D;54543;50.712;6.070;2023-03-23T05:50:26;11.05;81.14
67748;HTU21D;54543;50.712;6.070;2023-03-23T05:52:51;11.04;81.77
67748;HTU21D;54543;50.712;6.070;2023-03-23T05:55:17;11.08;81.61
67748;HTU21D;54543;50.712;6.070;2023-03-23T05:57:43;11.12;81.27
67748;HTU21D;54543;50.712;6.070;2023-03-23T06:00:09;11.14;81.41
67748;HTU21D;54543;50.712;6.070;2023-03-23T06:02:46;11.18;82.14
67748;HTU21D;54543;50.712;6.070;2023-03-23T06:05:12;11.24;81.00
67748;HTU21D;54543;50.712;6.070;2023-03-23T06:07:39;11.24;81.32
67748;HTU21D;54543;50.712;6.070;2023-03-23T06:10:05;11.24;81.41
67748;HTU21D;54543;50.712;6.070;2023-03-23T06:12:32;11.31;81.72
67748;HTU21D;54543;50.712;6.070;2023-03-23T06:14:58;11.40;80.62
67748;HTU21D;54543;50.712;6.070;2023-03-23T06:17:24;11.40;80.31
67748;HTU21D;54543;50.712;6.070;2023-03-23T06:19:50;11.40;79.98
67748;HTU21D;54543;50.712;6.070;2023-03-23T06:22:17;11.42;80.74
67748;HTU21D;54543;50.712;6.070;2023-03-23T06:24:42;11.55;79.99
67748;HTU21D;54543;50.712;6.070;2023-03-23T06:27:09;11.61;79.83
67748;HTU21D;54543;50.712;6.070;2023-03-23T06:29:35;11.73;79.05
67748;HTU21D;54543;50.712;6.070;2023-03-23T06:32:02;11.77;79.19
67748;HTU21D;54543;50.712;6.070;2023-03-23T06:34:28;11.85;80.27
67748;HTU21D;54543;50.712;6.070;2023-03-23T06:36:55;11.88;78.10
67748;HTU21D;54543;50.712;6.070;2023-03-23T06:39:21;11.90;78.80
67748;HTU21D;54543;50.712;6.070;2023-03-23T06:41:48;11.91;78.44
67748;HTU21D;54543;50.712;6.070;2023-03-23T06:44:13;11.96;78.48
67748;HTU21D;54543;50.712;6.070;2023-03-23T06:46:40;12.04;78.46
67748;HTU21D;54543;50.712;6.070;2023-03-23T06:49:07;12.10;77.58
67748;HTU21D;54543;50.712;6.070;2023-03-23T06:51:33;12.14;77.52
67748;HTU21D;54543;50.712;6.070;2023-03-23T06:53:58;12.17;78.56
67748;HTU21D;54543;50.712;6.070;2023-03-23T06:56:24;12.25;76.98
67748;HTU21D;54543;50.712;6.070;2023-03-23T06:58:50;12.27;77.05
67748;HTU21D;54543;50.712;6.070;2023-03-23T07:01:16;12.32;77.06
67748;HTU21D;54543;50.712;6.070;2023-03-23T07:03:42;12.33;76.21
67748;HTU21D;54543;50.712;6.070;2023-03-23T07:06:09;12.33;75.57
67748;HTU21D;54543;50.712;6.070;2023-03-23T07:08:35;12.31;76.19
67748;HTU21D;54543;50.712;6.070;2023-03-23T07:11:01;12.29;76.60
67748;HTU21D;54543;50.712;6.070;2023-03-23T07:13:26;12.30;76.49
67748;HTU21D;54543;50.712;6.070;2023-03-23T07:15:52;12.31;75.06
67748;HTU21D;54543;50.712;6.070;2023-03-23T07:18:18;12.25;76.18
67748;HTU21D;54543;50.712;6.070;2023-03-23T07:20:51;12.23;75.45
67748;HTU21D;54543;50.712;6.070;2023-03-23T07:23:17;12.27;75.97
67748;HTU21D;54543;50.712;6.070;2023-03-23T07:25:44;12.29;76.34
67748;HTU21D;54543;50.712;6.070;2023-03-23T07:28:11;12.30;75.98
67748;HTU21D;54543;50.712;6.070;2023-03-23T07:30:37;12.30;76.06
67748;HTU21D;54543;50.712;6.070;2023-03-23T07:33:08;12.32;76.81
67748;HTU21D;54543;50.712;6.070;2023-03-23T07:35:34;12.36;75.03
67748;HTU21D;54543;50.712;6.070;2023-03-23T07:38:01;12.41;75.77
67748;HTU21D;54543;50.712;6.070;2023-03-23T07:40:28;12.44;75.04
67748;HTU21D;54543;50.712;6.070;2023-03-23T07:42:56;12.44;75.07
67748;HTU21D;54543;50.712;6.070;2023-03-23T07:45:22;12.43;75.72
67748;HTU21D;54543;50.712;6.070;2023-03-23T07:47:48;12.48;74.96
67748;HTU21D;54543;50.712;6.070;2023-03-23T07:50:14;12.52;74.96
67748;HTU21D;54543;50.712;6.070;2023-03-23T07:52:40;12.53;73.99
67748;HTU21D;54543;50.712;6.070;2023-03-23T07:55:08;12.52;74.64
67748;HTU21D;54543;50.712;6.070;2023-03-23T07:57:34;12.52;73.12
67748;HTU21D;54543;50.712;6.070;2023-03-23T08:00:00;12.57;74.69
67748;HTU21D;54543;50.712;6.070;2023-03-23T08:02:26;12.61;74.32
67748;HTU21D;54543;50.712;6.070;2023-03-23T08:04:51;12.63;73.92
67748;HTU21D;54543;50.712;6.070;2023-03-23T08:07:19;12.67;74.23
67748;HTU21D;54543;50.712;6.070;2023-03-23T08:09:46;12.70;73.81
67748;HTU21D;54543;50.712;6.070;2023-03-23T08:12:13;12.73;73.66
67748;HTU21D;54543;50.712;6.070;2023-03-23T08:14:39;12.76;73.61
67748;HTU21D;54543;50.712;6.070;2023-03-23T08:17:07;12.79;73.48
67748;HTU21D;54543;50.712;6.070;2023-03-23T08:19:34;12.80;72.98
67748;HTU21D;54543;50.712;6.070;2023-03-23T08:22:04;12.85;73.51
67748;HTU21D;54543;50.712;6.070;2023-03-23T08:24:30;12.88;73.55
67748;HTU21D;54543;50.712;6.070;2023-03-23T08:26:56;12.89;73.51
67748;HTU21D;54543;50.712;6.070;2023-03-23T08:29:21;12.91;73.32
67748;HTU21D;54543;50.712;6.070;2023-03-23T08:31:47;12.93;73.54
67748;HTU21D;54543;50.712;6.070;2023-03-23T08:34:13;12.96;73.00
67748;HTU21D;54543;50.712;6.070;2023-03-23T08:36:38;13.01;73.35
67748;HTU21D;54543;50.712;6.070;2023-03-23T08:39:04;13.01;72.58
67748;HTU21D;54543;50.712;6.070;2023-03-23T08:41:31;13.07;72.98
67748;HTU21D;54543;50.712;6.070;2023-03-23T08:43:57;13.05;72.74
67748;HTU21D;54543;50.712;6.070;2023-03-23T08:46:23;13.02;71.37
67748;HTU21D;54543;50.712;6.070;2023-03-23T08:48:49;13.02;72.09
67748;HTU21D;54543;50.712;6.070;2023-03-23T08:51:14;13.00;72.43
67748;HTU21D;54543;50.712;6.070;2023-03-23T08:53:40;12.95;72.64
67748;HTU21D;54543;50.712;6.070;2023-03-23T08:56:10;12.99;72.72
67748;HTU21D;54543;50.712;6.070;2023-03-23T08:58:36;12.96;73.51
67748;HTU21D;54543;50.712;6.070;2023-03-23T09:01:03;13.00;73.77
67748;HTU21D;54543;50.712;6.070;2023-03-23T09:03:30;13.07;73.86
67748;HTU21D;54543;50.712;6.070;2023-03-23T09:06:00;13.16;73.12
67748;HTU21D;54543;50.712;6.070;2023-03-23T09:08:27;13.20;73.56
67748;HTU21D;54543;50.712;6.070;2023-03-23T09:10:58;13.24;73.90
67748;HTU21D;54543;50.712;6.070;2023-03-23T09:13:23;13.30;73.34
67748;HTU21D;54543;50.712;6.070;2023-03-23T09:15:49;13.29;73.25
67748;HTU21D;54543;50.712;6.070;2023-03-23T09:18:16;13.19;73.35
67748;HTU21D;54543;50.712;6.070;2023-03-23T09:20:42;13.15;74.15
67748;HTU21D;54543;50.712;6.070;2023-03-23T09:23:09;13.15;74.05
67748;HTU21D;54543;50.712;6.070;2023-03-23T09:25:34;13.17;74.43
67748;HTU21D;54543;50.712;6.070;2023-03-23T09:28:00;13.25;74.26
67748;HTU21D;54543;50.712;6.070;2023-03-23T09:30:28;13.31;73.37
67748;HTU21D;54543;50.712;6.070;2023-03-23T09:32:54;13.34;74.21
67748;HTU21D;54543;50.712;6.070;2023-03-23T09:35:21;13.33;74.18
67748;HTU21D;54543;50.712;6.070;2023-03-23T09:37:48;13.31;75.85
67748;HTU21D;54543;50.712;6.070;2023-03-23T09:40:19;13.35;74.72
67748;HTU21D;54543;50.712;6.070;2023-03-23T09:45:52;13.35;75.26
67748;HTU21D;54543;50.712;6.070;2023-03-23T09:48:33;13.39;75.76
67748;HTU21D;54543;50.712;6.070;2023-03-23T09:53:51;13.62;74.66
67748;HTU21D;54543;50.712;6.070;2023-03-23T09:56:18;13.59;74.53
67748;HTU21D;54543;50.712;6.070;2023-03-23T09:59:03;13.55;74.37
67748;HTU21D;54543;50.712;6.070;2023-03-23T10:04:07;13.41;75.18
67748;HTU21D;54543;50.712;6.070;2023-03-23T10:06:34;13.33;75.45
67748;HTU21D;54543;50.712;6.070;2023-03-23T10:09:03;13.31;76.08
67748;HTU21D;54543;50.712;6.070;2023-03-23T10:11:52;13.21;76.95
67748;HTU21D;54543;50.712;6.070;2023-03-23T10:14:35;13.12;78.24
67748;HTU21D;54543;50.712;6.070;2023-03-23T10:17:23;13.14;77.82
67748;HTU21D;54543;50.712;6.070;2023-03-23T10:20:28;13.31;77.30
67748;HTU21D;54543;50.712;6.070;2023-03-23T10:25:34;13.82;75.49
67748;HTU21D;54543;50.712;6.070;2023-03-23T10:28:09;14.07;73.85
67748;HTU21D;54543;50.712;6.070;2023-03-23T10:30:45;14.26;72.58
67748;HTU21D;54543;50.712;6.070;2023-03-23T10:36:07;14.29;71.29
67748;HTU21D;54543;50.712;6.070;2023-03-23T10:38:45;14.20;72.16
67748;HTU21D;54543;50.712;6.070;2023-03-23T10:41:19;14.24;72.74
67748;HTU21D;54543;50.712;6.070;2023-03-23T10:43:45;14.30;72.76
67748;HTU21D;54543;50.712;6.070;2023-03-23T10:46:38;14.27;73.33
67748;HTU21D;54543;50.712;6.070;2023-03-23T10:49:08;14.18;73.35
67748;HTU21D;54543;50.712;6.070;2023-03-23T10:51:41;13.93;75.77
67748;HTU21D;54543;50.712;6.070;2023-03-23T10:54:07;13.66;78.37
67748;HTU21D;54543;50.712;6.070;2023-03-23T10:56:37;13.34;78.53
67748;HTU21D;54543;50.712;6.070;2023-03-23T10:59:19;13.03;81.86
67748;HTU21D;54543;50.712;6.070;2023-03-23T11:01:56;12.82;82.03
67748;HTU21D;54543;50.712;6.070;2023-03-23T11:04:23;12.70;84.14
67748;HTU21D;54543;50.712;6.070;2023-03-23T11:06:51;12.82;83.81
67748;HTU21D;54543;50.712;6.070;2023-03-23T11:09:20;12.99;81.71
67748;HTU21D;54543;50.712;6.070;2023-03-23T11:11:53;13.07;82.00
67748;HTU21D;54543;50.712;6.070;2023-03-23T11:14:26;13.20;80.62
67748;HTU21D;54543;50.712;6.070;2023-03-23T11:16:56;13.39;81.01
67748;HTU21D;54543;50.712;6.070;2023-03-23T11:19:28;13.48;79.37
67748;HTU21D;54543;50.712;6.070;2023-03-23T11:22:05;13.54;78.79
67748;HTU21D;54543;50.712;6.070;2023-03-23T11:24:55;13.65;79.21
67748;HTU21D;54543;50.712;6.070;2023-03-23T11:27:22;13.82;78.76
67748;HTU21D;54543;50.712;6.070;2023-03-23T11:29:53;13.99;77.99
67748;HTU21D;54543;50.712;6.070;2023-03-23T11:32:23;14.23;76.87
67748;HTU21D;54543;50.712;6.070;2023-03-23T11:34:54;14.45;74.29
67748;HTU21D;54543;50.712;6.070;2023-03-23T11:45:38;14.55;72.06
67748;HTU21D;54543;50.712;6.070;2023-03-23T11:50:50;14.51;72.70
67748;HTU21D;54543;50.712;6.070;2023-03-23T11:58:31;14.44;72.32
67748;HTU21D;54543;50.712;6.070;2023-03-23T12:01:27;14.45;70.83
67748;HTU21D;54543;50.712;6.070;2023-03-23T12:06:41;14.51;70.35
67748;HTU21D;54543;50.712;6.070;2023-03-23T12:09:33;14.55;70.23
67748;HTU21D;54543;50.712;6.070;2023-03-23T12:12:12;14.53;70.10
67748;HTU21D;54543;50.712;6.070;2023-03-23T12:36:22;14.01;74.54
67748;HTU21D;54543;50.712;6.070;2023-03-23T12:39:09;13.94;75.57
67748;HTU21D;54543;50.712;6.070;2023-03-23T12:41:51;13.78;76.43
67748;HTU21D;54543;50.712;6.070;2023-03-23T12:44:23;13.64;75.62
67748;HTU21D;54543;50.712;6.070;2023-03-23T12:47:23;13.36;79.32
67748;HTU21D;54543;50.712;6.070;2023-03-23T12:53:29;13.04;80.43
67748;HTU21D;54543;50.712;6.070;2023-03-23T12:58:45;12.91;78.72
67748;HTU21D;54543;50.712;6.070;2023-03-23T13:01:32;12.85;81.69
67748;HTU21D;54543;50.712;6.070;2023-03-23T13:04:04;12.87;80.18
67748;HTU21D;54543;50.712;6.070;2023-03-23T13:06:37;12.92;79.84
67748;HTU21D;54543;50.712;6.070;2023-03-23T13:11:51;13.17;79.37
67748;HTU21D;54543;50.712;6.070;2023-03-23T13:14:37;13.38;79.67
67748;HTU21D;54543;50.712;6.070;2023-03-23T13:17:20;13.64;78.44
67748;HTU21D;54543;50.712;6.070;2023-03-23T13:22:50;14.03;75.58
67748;HTU21D;54543;50.712;6.070;2023-03-23T13:25:27;14.18;74.44
67748;HTU21D;54543;50.712;6.070;2023-03-23T13:27:59;14.38;74.16
67748;HTU21D;54543;50.712;6.070;2023-03-23T13:30:27;14.60;73.14
67748;HTU21D;54543;50.712;6.070;2023-03-23T13:33:05;14.73;69.78
67748;HTU21D;54543;50.712;6.070;2023-03-23T13:35:36;14.85;69.00
67748;HTU21D;54543;50.712;6.070;2023-03-23T13:38:23;14.94;69.20
67748;HTU21D;54543;50.712;6.070;2023-03-23T13:40:51;15.08;68.82
67748;HTU21D;54543;50.712;6.070;2023-03-23T13:43:29;15.17;68.85
67748;HTU21D;54543;50.712;6.070;2023-03-23T13:45:55;15.11;66.68
67748;HTU21D;54543;50.712;6.070;2023-03-23T13:48:46;14.98;67.80
67748;HTU21D;54543;50.712;6.070;2023-03-23T13:51:32;14.81;67.67
67748;HTU21D;54543;50.712;6.070;2023-03-23T13:59:56;14.51;71.10
67748;HTU21D;54543;50.712;6.070;2023-03-23T14:02:34;14.82;70.81
67748;HTU21D;54543;50.712;6.070;2023-03-23T14:10:41;15.58;69.04
67748;HTU21D;54543;50.712;6.070;2023-03-23T14:13:19;15.80;67.91
67748;HTU21D;54543;50.712;6.070;2023-03-23T14:15:57;15.97;67.59
67748;HTU21D;54543;50.712;6.070;2023-03-23T14:18:29;16.11;68.04
67748;HTU21D;54543;50.712;6.070;2023-03-23T14:20:55;16.20;68.36
67748;HTU21D;54543;50.712;6.070;2023-03-23T14:23:22;16.16;66.70
67748;HTU21D;54543;50.712;6.070;2023-03-23T14:25:56;16.11;67.23
67748;HTU21D;54543;50.712;6.070;2023-03-23T14:28:31;16.06;66.47
67748;HTU21D;54543;50.712;6.070;2023-03-23T14:30:58;16.11;67.80
67748;HTU21D;54543;50.712;6.070;2023-03-23T14:33:25;16.18;67.84
67748;HTU21D;54543;50.712;6.070;2023-03-23T14:35:52;16.22;67.18
67748;HTU21D;54543;50.712;6.070;2023-03-23T14:38:21;16.21;66.04
67748;HTU21D;54543;50.712;6.070;2023-03-23T14:41:00;16.17;65.33
67748;HTU21D;54543;50.712;6.070;2023-03-23T14:43:26;16.21;67.78
67748;HTU21D;54543;50.712;6.070;2023-03-23T14:45:54;16.22;65.33
67748;HTU21D;54543;50.712;6.070;2023-03-23T14:48:21;16.29;66.89
67748;HTU21D;54543;50.712;6.070;2023-03-23T14:50:52;16.30;66.86
67748;HTU21D;54543;50.712;6.070;2023-03-23T14:53:31;16.25;66.18
67748;HTU21D;54543;50.712;6.070;2023-03-23T14:56:00;16.27;65.30
67748;HTU21D;54543;50.712;6.070;2023-03-23T14:58:28;16.31;67.23
67748;HTU21D;54543;50.712;6.070;2023-03-23T15:01:01;16.42;66.11
67748;HTU21D;54543;50.712;6.070;2023-03-23T15:03:33;16.49;62.40
67748;HTU21D;54543;50.712;6.070;2023-03-23T15:06:01;16.50;65.92
67748;HTU21D;54543;50.712;6.070;2023-03-23T15:08:30;16.48;65.07
67748;HTU21D;54543;50.712;6.070;2023-03-23T15:11:22;16.44;61.84
67748;HTU21D;54543;50.712;6.070;2023-03-23T15:13:55;16.46;64.94
67748;HTU21D;54543;50.712;6.070;2023-03-23T15:16:27;16.59;61.61
67748;HTU21D;54543;50.712;6.070;2023-03-23T15:18:56;16.75;62.21
67748;HTU21D;54543;50.712;6.070;2023-03-23T15:21:30;16.75;61.28
67748;HTU21D;54543;50.712;6.070;2023-03-23T15:23:57;16.74;63.11
67748;HTU21D;54543;50.712;6.070;2023-03-23T15:29:24;16.98;60.87
67748;HTU21D;54543;50.712;6.070;2023-03-23T15:31:54;17.03;61.28
67748;HTU21D;54543;50.712;6.070;2023-03-23T15:34:32;16.91;59.43
67748;HTU21D;54543;50.712;6.070;2023-03-23T15:37:04;16.74;59.23
67748;HTU21D;54543;50.712;6.070;2023-03-23T15:39:31;16.65;61.84
67748;HTU21D;54543;50.712;6.070;2023-03-23T15:41:58;16.67;59.89
67748;HTU21D;54543;50.712;6.070;2023-03-23T15:44:29;16.61;59.86
67748;HTU21D;54543;50.712;6.070;2023-03-23T15:49:29;16.40;60.85
67748;HTU21D;54543;50.712;6.070;2023-03-23T15:51:54;16.33;61.18
67748;HTU21D;54543;50.712;6.070;2023-03-23T15:54:20;16.32;61.53
67748;HTU21D;54543;50.712;6.070;2023-03-23T15:56:46;16.43;60.37
67748;HTU21D;54543;50.712;6.070;2023-03-23T15:59:12;16.65;62.11
67748;HTU21D;54543;50.712;6.070;2023-03-23T16:01:39;16.84;61.47
67748;HTU21D;54543;50.712;6.070;2023-03-23T16:04:08;16.92;61.34
67748;HTU21D;54543;50.712;6.070;2023-03-23T16:06:36;16.99;62.14
67748;HTU21D;54543;50.712;6.070;2023-03-23T16:09:04;17.03;61.46
67748;HTU21D;54543;50.712;6.070;2023-03-23T16:11:30;17.01;58.60
67748;HTU21D;54543;50.712;6.070;2023-03-23T16:13:57;16.93;60.13
67748;HTU21D;54543;50.712;6.070;2023-03-23T16:16:26;16.82;60.80
67748;HTU21D;54543;50.712;6.070;2023-03-23T16:18:53;16.67;60.19
67748;HTU21D;54543;50.712;6.070;2023-03-23T16:21:18;16.54;60.99
67748;HTU21D;54543;50.712;6.070;2023-03-23T16:23:44;16.47;61.05
67748;HTU21D;54543;50.712;6.070;2023-03-23T16:26:12;16.46;61.06
67748;HTU21D;54543;50.712;6.070;2023-03-23T16:28:38;16.44;60.84
67748;HTU21D;54543;50.712;6.070;2023-03-23T16:31:05;16.43;60.88
67748;HTU21D;54543;50.712;6.070;2023-03-23T16:33:31;16.28;59.80
67748;HTU21D;54543;50.712;6.070;2023-03-23T16:35:56;16.10;59.99
67748;HTU21D;54543;50.712;6.070;2023-03-23T16:38:23;15.96;60.67
67748;HTU21D;54543;50.712;6.070;2023-03-23T16:40:48;15.85;61.21
67748;HTU21D;54543;50.712;6.070;2023-03-23T16:43:14;15.74;61.57
67748;HTU21D;54543;50.712;6.070;2023-03-23T16:45:41;15.61;61.47
67748;HTU21D;54543;50.712;6.070;2023-03-23T16:48:07;15.54;62.00
67748;HTU21D;54543;50.712;6.070;2023-03-23T16:50:34;15.45;62.67
67748;HTU21D;54543;50.712;6.070;2023-03-23T16:53:01;15.41;64.37
67748;HTU21D;54543;50.712;6.070;2023-03-23T16:55:27;15.39;63.45
67748;HTU21D;54543;50.712;6.070;2023-03-23T16:57:54;15.33;63.25
67748;HTU21D;54543;50.712;6.070;2023-03-23T17:00:20;15.27;63.53
67748;HTU21D;54543;50.712;6.070;2023-03-23T17:02:48;15.21;63.67
67748;HTU21D;54543;50.712;6.070;2023-03-23T17:05:20;15.13;64.43
67748;HTU21D;54543;50.712;6.070;2023-03-23T17:07:47;15.08;64.36
67748;HTU21D;54543;50.712;6.070;2023-03-23T17:10:13;15.06;64.63